createdAt,value
2019-05-03T00:00:04.260Z,10.1
2019-05-03T00:15:04.510Z,9.9
2019-05-03T00:30:04.347Z,9.8
2019-05-03T00:45:04.390Z,9.8
2019-05-03T01:00:04.425Z,9.8
2019-05-03T01:15:04.719Z,9.6
2019-05-03T01:30:04.503Z,9.8
2019-05-03T01:45:04.543Z,9.6
2019-05-03T02:00:04.591Z,9.5
2019-05-03T02:15:04.692Z,9.5
2019-05-03T02:30:04.980Z,9.3
2019-05-03T02:45:06.294Z,9.3
2019-05-03T03:00:05.342Z,9.4
2019-05-03T03:15:06.445Z,9.3
2019-05-03T03:30:08.240Z,9.3
2019-05-03T03:45:07.304Z,9.2
2019-05-03T04:00:07.272Z,9.3
2019-05-03T04:15:07.294Z,9.4
2019-05-03T04:30:07.352Z,9.4
2019-05-03T04:45:07.381Z,9.3
2019-05-03T05:00:11.874Z,9.3
2019-05-03T05:15:07.713Z,9.3
2019-05-03T05:30:07.698Z,9.4
2019-05-03T05:45:07.803Z,9.5
2019-05-03T06:00:10.303Z,9.5
2019-05-03T06:15:10.319Z,9.6
2019-05-03T06:30:10.296Z,9.4
2019-05-03T06:45:11.991Z,9.4
2019-05-03T07:00:11.410Z,9.4
2019-05-03T07:15:11.503Z,9.7
2019-05-03T07:30:11.622Z,9.7
2019-05-03T07:45:11.533Z,9.9
2019-05-03T08:00:12.050Z,9.7
2019-05-03T08:15:11.728Z,9.5
2019-05-03T08:30:11.559Z,9.6
2019-05-03T08:45:11.648Z,9.9
2019-05-03T09:00:14.592Z,9.9
2019-05-03T09:15:12.227Z,10.7
2019-05-03T09:30:05.166Z,10.9
2019-05-03T09:45:09.366Z,11.2
2019-05-03T10:00:06.530Z,11.1
2019-05-03T10:15:10.142Z,11.1
2019-05-03T10:30:16.600Z,11.6
2019-05-03T10:45:12.107Z,11.8
2019-05-03T11:00:07.797Z,11.9
2019-05-03T11:15:07.768Z,11.7
2019-05-03T11:30:10.032Z,11.4
2019-05-03T11:45:04.760Z,12
2019-05-03T12:00:06.600Z,11.6
2019-05-03T12:15:04.501Z,11.6
2019-05-03T12:30:10.167Z,12.1
2019-05-03T12:45:10.712Z,11.9
2019-05-03T13:00:10.758Z,12.2
2019-05-03T13:15:07.005Z,11.8
2019-05-03T13:30:07.557Z,11.5
2019-05-03T13:45:08.119Z,11.5
2019-05-03T14:00:08.151Z,11.3
2019-05-03T14:15:09.925Z,10.6
2019-05-03T14:30:09.913Z,10.6
2019-05-03T14:45:09.920Z,10.4
2019-05-03T15:00:10.039Z,10.2
2019-05-03T15:15:10.554Z,10.2
2019-05-03T15:30:11.108Z,10.5
2019-05-03T15:45:02.628Z,10.4
2019-05-03T16:00:12.658Z,10.6
2019-05-03T16:15:04.891Z,10.6
2019-05-03T16:30:05.223Z,10.5
2019-05-03T16:45:05.709Z,10.4
2019-05-03T17:00:05.847Z,10.4
2019-05-03T17:15:05.265Z,10.4
2019-05-03T17:30:04.775Z,10.4
2019-05-03T17:45:05.451Z,10.4
2019-05-03T18:00:05.457Z,10.3
2019-05-03T18:15:05.883Z,10.2
2019-05-03T18:30:05.555Z,10.1
2019-05-03T18:45:05.836Z,10
2019-05-03T19:00:08.377Z,9.9
2019-05-03T19:15:05.879Z,9.7
2019-05-03T19:30:05.931Z,9.6
2019-05-03T19:45:05.980Z,9.4
2019-05-03T20:00:05.997Z,9.3
2019-05-03T20:15:06.064Z,9.1
2019-05-03T20:30:06.091Z,8.8
2019-05-03T20:45:06.222Z,8.7
2019-05-03T21:00:06.243Z,8.5
2019-05-03T21:15:06.209Z,8.7
2019-05-03T21:30:07.504Z,8.8
2019-05-03T21:45:07.549Z,8.7
2019-05-03T22:00:08.046Z,8.8
2019-05-03T22:15:07.623Z,8.7
2019-05-03T22:30:07.735Z,8.5
2019-05-03T22:45:07.785Z,8.3
2019-05-03T23:00:07.815Z,8
2019-05-03T23:15:07.788Z,7.7
2019-05-03T23:30:07.833Z,7.4
2019-05-03T23:45:07.937Z,7.5
